sensor_id;sensor_type;location;lat;lon;timestamp;pressure;altitude;pressure_sealevel;temperature;humidity
79455;BME280;68900;52.134;5.420;2023-08-12T00:01:27;101876.44;;;20.78;81.11
79455;BME280;68900;52.134;5.420;2023-08-12T00:03:53;101879.41;;;20.76;81.16
79455;BME280;68900;52.134;5.420;2023-08-12T00:06:20;101886.22;;;20.80;81.00
79455;BME280;68900;52.134;5.420;2023-08-12T00:08:46;101885.34;;;20.80;81.18
79455;BME280;68900;52.134;5.420;2023-08-12T00:11:13;101871.19;;;20.76;80.87
79455;BME280;68900;52.134;5.420;2023-08-12T00:13:39;101868.81;;;20.73;81.07
79455;BME280;68900;52.134;5.420;2023-08-12T00:16:06;101871.09;;;20.69;81.43
79455;BME280;68900;52.134;5.420;2023-08-12T00:18:32;101887.16;;;20.72;81.71
79455;BME280;68900;52.134;5.420;2023-08-12T00:21:09;101880.81;;;20.72;81.77
79455;BME280;68900;52.134;5.420;2023-08-12T00:23:40;101875.03;;;20.67;81.92
79455;BME280;68900;52.134;5.420;2023-08-12T00:26:08;101869.97;;;20.64;82.05
79455;BME280;68900;52.134;5.420;2023-08-12T00:28:34;101874.41;;;20.65;81.95
79455;BME280;68900;52.134;5.420;2023-08-12T00:31:04;101871.00;;;20.63;82.13
79455;BME280;68900;52.134;5.420;2023-08-12T00:33:32;101865.22;;;20.58;81.57
79455;BME280;68900;52.134;5.420;2023-08-12T00:35:59;101859.75;;;20.58;81.89
79455;BME280;68900;52.134;5.420;2023-08-12T00:38:25;101863.91;;;20.54;82.47
79455;BME280;68900;52.134;5.420;2023-08-12T00:40:52;101851.91;;;20.55;82.45
79455;BME280;68900;52.134;5.420;2023-08-12T00:43:18;101857.56;;;20.53;82.29
79455;BME280;68900;52.134;5.420;2023-08-12T00:45:45;101850.59;;;20.51;82.51
79455;BME280;68900;52.134;5.420;2023-08-12T00:48:12;101848.88;;;20.50;82.66
79455;BME280;68900;52.134;5.420;2023-08-12T00:50:41;101838.97;;;20.49;82.80
79455;BME280;68900;52.134;5.420;2023-08-12T00:53:09;101842.78;;;20.48;82.70
79455;BME280;68900;52.134;5.420;2023-08-12T00:55:36;101834.91;;;20.45;82.95
79455;BME280;68900;52.134;5.420;2023-08-12T00:58:03;101834.25;;;20.43;82.74
79455;BME280;68900;52.134;5.420;2023-08-12T01:00:31;101834.63;;;20.40;82.83
79455;BME280;68900;52.134;5.420;2023-08-12T01:03:00;101833.81;;;20.39;83.06
79455;BME280;68900;52.134;5.420;2023-08-12T01:05:27;101825.94;;;20.36;82.93
79455;BME280;68900;52.134;5.420;2023-08-12T01:07:54;101821.50;;;20.35;83.11
79455;BME280;68900;52.134;5.420;2023-08-12T01:10:23;101830.78;;;20.34;83.00
79455;BME280;68900;52.134;5.420;2023-08-12T01:12:59;101826.34;;;20.33;82.98
79455;BME280;68900;52.134;5.420;2023-08-12T01:15:31;101819.31;;;20.31;83.15
79455;BME280;68900;52.134;5.420;2023-08-12T01:18:00;101817.13;;;20.26;83.27
79455;BME280;68900;52.134;5.420;2023-08-12T01:20:27;101817.69;;;20.21;82.95
79455;BME280;68900;52.134;5.420;2023-08-12T01:23:06;101811.84;;;20.24;83.44
79455;BME280;68900;52.134;5.420;2023-08-12T01:25:39;101817.97;;;20.26;83.24
79455;BME280;68900;52.134;5.420;2023-08-12T01:28:06;101816.28;;;20.25;83.07
79455;BME280;68900;52.134;5.420;2023-08-12T01:30:46;101811.34;;;20.21;83.11
79455;BME280;68900;52.134;5.420;2023-08-12T01:33:21;101806.09;;;20.19;82.75
79455;BME280;68900;52.134;5.420;2023-08-12T01:36:23;101807.31;;;20.17;83.10
79455;BME280;68900;52.134;5.420;2023-08-12T01:38:51;101799.47;;;20.14;82.78
79455;BME280;68900;52.134;5.420;2023-08-12T01:41:19;101795.69;;;20.15;83.95
79455;BME280;68900;52.134;5.420;2023-08-12T01:43:47;101791.25;;;20.14;83.87
79455;BME280;68900;52.134;5.420;2023-08-12T01:46:14;101786.16;;;20.11;83.43
79455;BME280;68900;52.134;5.420;2023-08-12T01:48:40;101784.28;;;20.11;84.46
79455;BME280;68900;52.134;5.420;2023-08-12T01:51:07;101788.34;;;20.15;84.02
79455;BME280;68900;52.134;5.420;2023-08-12T01:53:33;101783.13;;;20.20;83.84
79455;BME280;68900;52.134;5.420;2023-08-12T01:56:00;101785.03;;;20.20;84.03
79455;BME280;68900;52.134;5.420;2023-08-12T01:58:26;101780.97;;;20.16;84.29
79455;BME280;68900;52.134;5.420;2023-08-12T02:00:53;101773.78;;;20.15;84.27
79455;BME280;68900;52.134;5.420;2023-08-12T02:03:19;101769.34;;;20.14;84.61
79455;BME280;68900;52.134;5.420;2023-08-12T02:05:53;101770.56;;;20.11;84.47
79455;BME280;68900;52.134;5.420;2023-08-12T02:08:20;101773.31;;;20.11;84.56
79455;BME280;68900;52.134;5.420;2023-08-12T02:10:47;101767.16;;;20.09;84.76
79455;BME280;68900;52.134;5.420;2023-08-12T02:13:13;101769.06;;;20.09;84.94
79455;BME280;68900;52.134;5.420;2023-08-12T02:15:40;101765.47;;;20.08;84.93
79455;BME280;68900;52.134;5.420;2023-08-12T02:18:06;101768.00;;;20.10;84.90
79455;BME280;68900;52.134;5.420;2023-08-12T02:20:33;101766.13;;;20.10;84.50
79455;BME280;68900;52.134;5.420;2023-08-12T02:23:00;101765.75;;;20.13;83.89
79455;BME280;68900;52.134;5.420;2023-08-12T02:25:26;101756.47;;;20.14;84.24
79455;BME280;68900;52.134;5.420;2023-08-12T02:27:53;101763.66;;;20.15;83.80
79455;BME280;68900;52.134;5.420;2023-08-12T02:30:23;101753.34;;;20.17;84.11
79455;BME280;68900;52.134;5.420;2023-08-12T02:32:49;101746.16;;;20.16;84.34
79455;BME280;68900;52.134;5.420;2023-08-12T02:35:18;101753.91;;;20.13;84.79
79455;BME280;68900;52.134;5.420;2023-08-12T02:37:44;101745.91;;;20.11;84.29
79455;BME280;68900;52.134;5.420;2023-08-12T02:40:11;101746.94;;;20.10;85.30
79455;BME280;68900;52.134;5.420;2023-08-12T02:42:38;101747.31;;;20.07;85.48
79455;BME280;68900;52.134;5.420;2023-08-12T02:45:05;101734.69;;;20.06;85.64
79455;BME280;68900;52.134;5.420;2023-08-12T02:47:31;101742.22;;;20.04;85.59
79455;BME280;68900;52.134;5.420;2023-08-12T02:49:58;101741.19;;;20.05;85.65
79455;BME280;68900;52.134;5.420;2023-08-12T02:52:24;101733.59;;;20.07;85.71
79455;BME280;68900;52.134;5.420;2023-08-12T02:54:51;101732.97;;;20.05;85.90
79455;BME280;68900;52.134;5.420;2023-08-12T02:57:18;101735.72;;;20.05;86.20
79455;BME280;68900;52.134;5.420;2023-08-12T02:59:44;101729.56;;;20.03;86.15
79455;BME280;68900;52.134;5.420;2023-08-12T03:02:13;101727.03;;;20.02;86.20
79455;BME280;68900;52.134;5.420;2023-08-12T03:04:42;101725.31;;;20.01;86.41
79455;BME280;68900;52.134;5.420;2023-08-12T03:07:09;101719.84;;;20.01;86.55
79455;BME280;68900;52.134;5.420;2023-08-12T03:09:36;101716.25;;;20.00;86.20
79455;BME280;68900;52.134;5.420;2023-08-12T03:12:02;101722.38;;;20.02;86.43
79455;BME280;68900;52.134;5.420;2023-08-12T03:14:30;101713.13;;;20.03;86.79
79455;BME280;68900;52.134;5.420;2023-08-12T03:16:57;101710.59;;;20.02;86.82
79455;BME280;68900;52.134;5.420;2023-08-12T03:19:23;101713.97;;;20.04;87.10
79455;BME280;68900;52.134;5.420;2023-08-12T03:21:50;101717.38;;;20.06;86.84
79455;BME280;68900;52.134;5.420;2023-08-12T03:24:16;101710.88;;;20.07;86.73
79455;BME280;68900;52.134;5.420;2023-08-12T03:26:43;101706.88;;;20.09;86.68
79455;BME280;68900;52.134;5.420;2023-08-12T03:29:10;101709.81;;;20.08;86.48
79455;BME280;68900;52.134;5.420;2023-08-12T03:31:37;101702.44;;;20.08;87.09
79455;BME280;68900;52.134;5.420;2023-08-12T03:34:04;101699.69;;;20.08;87.27
79455;BME280;68900;52.134;5.420;2023-08-12T03:36:30;101695.91;;;20.09;87.19
79455;BME280;68900;52.134;5.420;2023-08-12T03:38:57;101691.00;;;20.05;87.49
79455;BME280;68900;52.134;5.420;2023-08-12T03:41:23;101686.38;;;20.05;87.60
79455;BME280;68900;52.134;5.420;2023-08-12T03:43:53;101673.72;;;20.04;87.88
79455;BME280;68900;52.134;5.420;2023-08-12T03:46:27;101682.41;;;20.08;87.81
79455;BME280;68900;52.134;5.420;2023-08-12T03:49:15;101683.91;;;20.10;87.09
79455;BME280;68900;52.134;5.420;2023-08-12T03:51:44;101678.44;;;20.10;87.65
79455;BME280;68900;52.134;5.420;2023-08-12T03:54:11;101675.69;;;20.10;87.87
79455;BME280;68900;52.134;5.420;2023-08-12T03:57:08;101668.50;;;20.09;87.72
79455;BME280;68900;52.134;5.420;2023-08-12T03:59:35;101671.06;;;20.11;87.80
79455;BME280;68900;52.134;5.420;2023-08-12T04:02:02;101660.13;;;20.11;88.18
79455;BME280;68900;52.134;5.420;2023-08-12T04:04:30;101661.34;;;20.08;88.21
79455;BME280;68900;52.134;5.420;2023-08-12T04:06:57;101658.41;;;20.10;88.20
79455;BME280;68900;52.134;5.420;2023-08-12T04:09:23;101660.28;;;20.09;88.22
79455;BME280;68900;52.134;5.420;2023-08-12T04:11:50;101659.25;;;20.10;88.00
79455;BME280;68900;52.134;5.420;2023-08-12T04:14:16;101645.75;;;20.09;88.30
79455;BME280;68900;52.134;5.420;2023-08-12T04:16:43;101639.81;;;20.05;87.74
79455;BME280;68900;52.134;5.420;2023-08-12T04:19:09;101646.31;;;20.04;88.20
79455;BME280;68900;52.134;5.420;2023-08-12T04:21:38;101644.88;;;20.08;88.35
79455;BME280;68900;52.134;5.420;2023-08-12T04:24:20;101652.25;;;20.08;87.79
79455;BME280;68900;52.134;5.420;2023-08-12T04:26:47;101642.81;;;20.10;87.84
79455;BME280;68900;52.134;5.420;2023-08-12T04:29:13;101650.63;;;20.13;87.42
79455;BME280;68900;52.134;5.420;2023-08-12T04:31:40;101649.59;;;20.14;88.43
79455;BME280;68900;52.134;5.420;2023-08-12T04:34:07;101642.25;;;20.15;88.49
79455;BME280;68900;52.134;5.420;2023-08-12T04:36:34;101643.72;;;20.17;89.07
79455;BME280;68900;52.134;5.420;2023-08-12T04:39:04;101645.63;;;20.17;88.87
79455;BME280;68900;52.134;5.420;2023-08-12T04:41:30;101632.75;;;20.17;89.08
79455;BME280;68900;52.134;5.420;2023-08-12T04:43:57;101627.09;;;20.19;89.39
79455;BME280;68900;52.134;5.420;2023-08-12T04:46:23;101607.06;;;20.18;89.02
79455;BME280;68900;52.134;5.420;2023-08-12T04:48:50;101603.06;;;20.21;89.40
79455;BME280;68900;52.134;5.420;2023-08-12T04:51:16;101596.56;;;20.22;90.04
79455;BME280;68900;52.134;5.420;2023-08-12T04:53:43;101595.31;;;20.24;89.81
79455;BME280;68900;52.134;5.420;2023-08-12T04:56:09;101599.97;;;20.24;89.85
79455;BME280;68900;52.134;5.420;2023-08-12T04:58:36;101597.00;;;20.25;89.36
79455;BME280;68900;52.134;5.420;2023-08-12T05:01:03;101589.44;;;20.27;90.25
79455;BME280;68900;52.134;5.420;2023-08-12T05:03:30;101592.19;;;20.27;89.75
79455;BME280;68900;52.134;5.420;2023-08-12T05:05:56;101595.59;;;20.29;89.85
79455;BME280;68900;52.134;5.420;2023-08-12T05:08:23;101585.47;;;20.30;88.97
79455;BME280;68900;52.134;5.420;2023-08-12T05:10:53;101576.22;;;20.31;89.78
79455;BME280;68900;52.134;5.420;2023-08-12T05:13:20;101581.03;;;20.29;89.65
79455;BME280;68900;52.134;5.420;2023-08-12T05:15:47;101588.03;;;20.32;89.54
79455;BME280;68900;52.134;5.420;2023-08-12T05:18:14;101596.25;;;20.32;89.63
79455;BME280;68900;52.134;5.420;2023-08-12T05:20:41;101598.81;;;20.33;89.46
79455;BME280;68900;52.134;5.420;2023-08-12T05:23:25;101597.97;;;20.33;89.35
79455;BME280;68900;52.134;5.420;2023-08-12T05:25:52;101592.66;;;20.31;89.71
79455;BME280;68900;52.134;5.420;2023-08-12T05:28:20;101588.88;;;20.32;89.71
79455;BME280;68900;52.134;5.420;2023-08-12T05:30:47;101592.47;;;20.33;89.96
79455;BME280;68900;52.134;5.420;2023-08-12T05:33:14;101593.09;;;20.35;89.86
79455;BME280;68900;52.134;5.420;2023-08-12T05:35:41;101589.72;;;20.33;89.35
79455;BME280;68900;52.134;5.420;2023-08-12T05:38:07;101588.69;;;20.34;89.33
79455;BME280;68900;52.134;5.420;2023-08-12T05:40:34;101590.38;;;20.35;89.54
79455;BME280;68900;52.134;5.420;2023-08-12T05:43:13;101594.81;;;20.36;89.20
79455;BME280;68900;52.134;5.420;2023-08-12T05:45:40;101595.84;;;20.35;90.13
79455;BME280;68900;52.134;5.420;2023-08-12T05:48:07;101595.84;;;20.35;90.24
79455;BME280;68900;52.134;5.420;2023-08-12T05:50:34;101597.78;;;20.34;90.56
79455;BME280;68900;52.134;5.420;2023-08-12T05:53:01;101593.09;;;20.35;90.26
79455;BME280;68900;52.134;5.420;2023-08-12T05:55:27;101587.00;;;20.33;89.97
79455;BME280;68900;52.134;5.420;2023-08-12T05:57:54;101592.84;;;20.29;90.58
79455;BME280;68900;52.134;5.420;2023-08-12T06:00:20;101592.84;;;20.29;90.21
79455;BME280;68900;52.134;5.420;2023-08-12T06:02:47;101586.50;;;20.29;90.37
79455;BME280;68900;52.134;5.420;2023-08-12T06:05:17;101580.84;;;20.31;90.72
79455;BME280;68900;52.134;5.420;2023-08-12T06:07:44;101585.28;;;20.32;90.34
79455;BME280;68900;52.134;5.420;2023-08-12T06:10:10;101582.25;;;20.26;90.72
79455;BME280;68900;52.134;5.420;2023-08-12T06:12:37;101588.41;;;20.28;91.07
79455;BME280;68900;52.134;5.420;2023-08-12T06:15:04;101591.16;;;20.28;91.34
79455;BME280;68900;52.134;5.420;2023-08-12T06:17:31;101588.59;;;20.27;90.99
79455;BME280;68900;52.134;5.420;2023-08-12T06:19:57;101592.59;;;20.24;91.35
79455;BME280;68900;52.134;5.420;2023-08-12T06:22:24;101586.44;;;20.22;91.25
79455;BME280;68900;52.134;5.420;2023-08-12T06:24:50;101580.78;;;20.24;91.56
79455;BME280;68900;52.134;5.420;2023-08-12T06:27:17;101581.81;;;20.23;91.42
79455;BME280;68900;52.134;5.420;2023-08-12T06:30:10;101585.59;;;20.22;90.63
79455;BME280;68900;52.134;5.420;2023-08-12T06:32:37;101595.69;;;20.21;91.44
79455;BME280;68900;52.134;5.420;2023-08-12T06:35:04;101594.03;;;20.20;91.35
79455;BME280;68900;52.134;5.420;2023-08-12T06:37:30;101592.78;;;20.23;91.44
79455;BME280;68900;52.134;5.420;2023-08-12T06:39:57;101596.38;;;20.23;91.23
79455;BME280;68900;52.134;5.420;2023-08-12T06:42:33;101599.09;;;20.23;90.33
79455;BME280;68900;52.134;5.420;2023-08-12T06:44:59;101600.13;;;20.22;90.62
79455;BME280;68900;52.134;5.420;2023-08-12T06:47:29;101594.03;;;20.20;90.52
79455;BME280;68900;52.134;5.420;2023-08-12T06:49:56;101590.16;;;20.15;90.36
79455;BME280;68900;52.134;5.420;2023-08-12T06:52:23;101582.97;;;20.14;90.44
79455;BME280;68900;52.134;5.420;2023-08-12T06:54:49;101580.91;;;20.16;91.00
79455;BME280;68900;52.134;5.420;2023-08-12T06:57:36;101578.34;;;20.14;90.91
79455;BME280;68900;52.134;5.420;2023-08-12T07:00:09;101576.66;;;20.13;91.23
79455;BME280;68900;52.134;5.420;2023-08-12T07:02:36;101570.53;;;20.11;90.90
79455;BME280;68900;52.134;5.420;2023-08-12T07:05:03;101570.53;;;20.11;90.95
79455;BME280;68900;52.134;5.420;2023-08-12T07:07:29;101574.94;;;20.12;90.88
79455;BME280;68900;52.134;5.420;2023-08-12T07:09:56;101573.72;;;20.15;91.13
79455;BME280;68900;52.134;5.420;2023-08-12T07:12:23;101572.88;;;20.14;90.64
79455;BME280;68900;52.134;5.420;2023-08-12T07:14:49;101574.75;;;20.14;91.30
79455;BME280;68900;52.134;5.420;2023-08-12T07:17:16;101563.81;;;20.14;90.74
79455;BME280;68900;52.134;5.420;2023-08-12T07:19:43;101562.31;;;20.11;91.33
79455;BME280;68900;52.134;5.420;2023-08-12T07:22:09;101559.94;;;20.08;91.27
79455;BME280;68900;52.134;5.420;2023-08-12T07:24:36;101556.56;;;20.06;90.60
79455;BME280;68900;52.134;5.420;2023-08-12T07:27:03;101550.44;;;20.04;90.80
79455;BME280;68900;52.134;5.420;2023-08-12T07:29:33;101552.75;;;20.07;91.47
79455;BME280;68900;52.134;5.420;2023-08-12T07:31:59;101564.56;;;20.08;91.41
79455;BME280;68900;52.134;5.420;2023-08-12T07:34:28;101552.56;;;20.09;91.63
79455;BME280;68900;52.134;5.420;2023-08-12T07:36:57;101546.91;;;20.10;91.46
79455;BME280;68900;52.134;5.420;2023-08-12T07:39:23;101544.16;;;20.10;91.76
79455;BME280;68900;52.134;5.420;2023-08-12T07:42:02;101547.53;;;20.12;91.40
79455;BME280;68900;52.134;5.420;2023-08-12T07:44:29;101541.88;;;20.14;90.71
79455;BME280;68900;52.134;5.420;2023-08-12T07:46:56;101539.72;;;20.09;91.07
79455;BME280;68900;52.134;5.420;2023-08-12T07:49:23;101540.50;;;20.03;91.64
79455;BME280;68900;52.134;5.420;2023-08-12T07:51:49;101537.13;;;20.01;91.77
79455;BME280;68900;52.134;5.420;2023-08-12T07:54:16;101540.50;;;20.03;91.42
79455;BME280;68900;52.134;5.420;2023-08-12T07:56:43;101545.13;;;20.03;92.03
79455;BME280;68900;52.134;5.420;2023-08-12T07:59:23;101539.28;;;20.06;91.74
79455;BME280;68900;52.134;5.420;2023-08-12T08:01:50;101543.31;;;20.10;92.27
79455;BME280;68900;52.134;5.420;2023-08-12T08:04:17;101549.25;;;20.13;92.68
79455;BME280;68900;52.134;5.420;2023-08-12T08:06:44;101550.50;;;20.11;92.34
79455;BME280;68900;52.134;5.420;2023-08-12T08:09:10;101543.78;;;20.13;91.84
79455;BME280;68900;52.134;5.420;2023-08-12T08:11:44;101549.25;;;20.13;91.99
79455;BME280;68900;52.134;5.420;2023-08-12T08:14:14;101550.50;;;20.11;91.18
79455;BME280;68900;52.134;5.420;2023-08-12T08:16:40;101548.22;;;20.14;91.54
79455;BME280;68900;52.134;5.420;2023-08-12T08:19:08;101550.09;;;20.14;91.64
79455;BME280;68900;52.134;5.420;2023-08-12T08:21:51;101543.59;;;20.15;91.80
79455;BME280;68900;52.134;5.420;2023-08-12T08:24:18;101550.19;;;20.20;91.02
79455;BME280;68900;52.134;5.420;2023-08-12T08:26:44;101540.28;;;20.26;90.58
79455;BME280;68900;52.134;5.420;2023-08-12T08:29:14;101548.13;;;20.29;91.36
79455;BME280;68900;52.134;5.420;2023-08-12T08:31:50;101540.59;;;20.31;92.19
79455;BME280;68900;52.134;5.420;2023-08-12T08:34:17;101542.28;;;20.32;90.60
79455;BME280;68900;52.134;5.420;2023-08-12T08:36:43;101537.25;;;20.36;90.53
79455;BME280;68900;52.134;5.420;2023-08-12T08:39:10;101546.97;;;20.38;90.26
79455;BME280;68900;52.134;5.420;2023-08-12T08:41:39;101549.13;;;20.43;90.30
79455;BME280;68900;52.134;5.420;2023-08-12T08:44:21;101551.28;;;20.47;89.84
79455;BME280;68900;52.134;5.420;2023-08-12T08:46:52;101551.28;;;20.47;90.66
79455;BME280;68900;52.134;5.420;2023-08-12T08:49:32;101548.28;;;20.42;90.73
79455;BME280;68900;52.134;5.420;2023-08-12T08:52:01;101555.84;;;20.40;91.19
79455;BME280;68900;52.134;5.420;2023-08-12T08:54:28;101557.09;;;20.38;91.32
79455;BME280;68900;52.134;5.420;2023-08-12T08:57:06;101568.06;;;20.38;90.73
79455;BME280;68900;52.134;5.420;2023-08-12T08:59:47;101567.88;;;20.39;90.60
79455;BME280;68900;52.134;5.420;2023-08-12T09:02:33;101567.03;;;20.39;90.49
79455;BME280;68900;52.134;5.420;2023-08-12T09:05:01;101574.19;;;20.40;91.14
79455;BME280;68900;52.134;5.420;2023-08-12T09:07:29;101587.19;;;20.31;89.87
79455;BME280;68900;52.134;5.420;2023-08-12T09:10:10;101596.88;;;20.12;89.31
79455;BME280;68900;52.134;5.420;2023-08-12T09:12:40;101595.44;;;19.95;88.47
79455;BME280;68900;52.134;5.420;2023-08-12T09:15:23;101601.47;;;19.69;87.98
79455;BME280;68900;52.134;5.420;2023-08-12T09:17:50;101606.69;;;19.50;86.71
79455;BME280;68900;52.134;5.420;2023-08-12T09:20:17;101606.19;;;19.31;87.76
79455;BME280;68900;52.134;5.420;2023-08-12T09:22:44;101609.41;;;19.20;86.02
79455;BME280;68900;52.134;5.420;2023-08-12T09:25:11;101590.81;;;18.86;87.75
79455;BME280;68900;52.134;5.420;2023-08-12T09:27:39;101589.41;;;18.90;87.42
79455;BME280;68900;52.134;5.420;2023-08-12T09:30:07;101586.13;;;18.95;88.31
79455;BME280;68900;52.134;5.420;2023-08-12T09:32:34;101589.22;;;19.07;88.65
79455;BME280;68900;52.134;5.420;2023-08-12T09:35:01;101605.06;;;19.11;88.24
79455;BME280;68900;52.134;5.420;2023-08-12T09:37:41;101602.78;;;19.15;88.16
79455;BME280;68900;52.134;5.420;2023-08-12T09:40:08;101607.34;;;19.22;88.51
79455;BME280;68900;52.134;5.420;2023-08-12T09:42:35;101617.31;;;19.15;87.91
79455;BME280;68900;52.134;5.420;2023-08-12T09:45:02;101616.69;;;19.13;87.77
79455;BME280;68900;52.134;5.420;2023-08-12T09:47:28;101620.06;;;19.15;87.45
79455;BME280;68900;52.134;5.420;2023-08-12T09:50:09;101627.34;;;19.23;87.95
79455;BME280;68900;52.134;5.420;2023-08-12T09:52:37;101624.34;;;19.32;87.08
79455;BME280;68900;52.134;5.420;2023-08-12T09:55:04;101633.41;;;19.48;86.54
79455;BME280;68900;52.134;5.420;2023-08-12T09:57:33;101642.84;;;19.60;85.21
79455;BME280;68900;52.134;5.420;2023-08-12T10:00:03;101647.81;;;19.56;85.64
79455;BME280;68900;52.134;5.420;2023-08-12T10:02:33;101639.16;;;19.53;85.48
79455;BME280;68900;52.134;5.420;2023-08-12T10:05:00;101639.53;;;19.50;85.06
79455;BME280;68900;52.134;5.420;2023-08-12T10:07:28;101653.13;;;19.58;84.78
79455;BME280;68900;52.134;5.420;2023-08-12T10:09:55;101657.38;;;19.60;84.85
79455;BME280;68900;52.134;5.420;2023-08-12T10:12:22;101648.19;;;19.68;85.93
79455;BME280;68900;52.134;5.420;2023-08-12T10:14:50;101644.78;;;19.80;85.26
79455;BME280;68900;52.134;5.420;2023-08-12T10:17:17;101622.97;;;19.87;85.84
79455;BME280;68900;52.134;5.420;2023-08-12T10:19:55;101615.28;;;19.97;85.21
79455;BME280;68900;52.134;5.420;2023-08-12T10:22:24;101625.94;;;20.07;85.31
79455;BME280;68900;52.134;5.420;2023-08-12T10:24:51;101629.38;;;20.15;86.17
79455;BME280;68900;52.134;5.420;2023-08-12T10:27:18;101632.63;;;20.25;84.85
79455;BME280;68900;52.134;5.420;2023-08-12T10:29:46;101626.25;;;20.40;84.84
79455;BME280;68900;52.134;5.420;2023-08-12T10:32:13;101624.75;;;20.58;83.43
79455;BME280;68900;52.134;5.420;2023-08-12T10:34:40;101630.75;;;20.68;83.05
79455;BME280;68900;52.134;5.420;2023-08-12T10:37:12;101634.78;;;20.72;81.18
79455;BME280;68900;52.134;5.420;2023-08-12T10:39:39;101614.22;;;20.83;81.17
79455;BME280;68900;52.134;5.420;2023-08-12T10:45:05;101625.47;;;20.95;78.95
79455;BME280;68900;52.134;5.420;2023-08-12T10:47:40;101631.31;;;20.85;79.26
79455;BME280;68900;52.134;5.420;2023-08-12T10:50:18;101637.88;;;20.91;79.87
79455;BME280;68900;52.134;5.420;2023-08-12T10:52:53;101635.56;;;20.88;79.57
79455;BME280;68900;52.134;5.420;2023-08-12T10:55:27;101633.47;;;20.90;79.83
79455;BME280;68900;52.134;5.420;2023-08-12T10:57:55;101624.47;;;21.02;79.88
79455;BME280;68900;52.134;5.420;2023-08-12T11:00:27;101626.94;;;21.19;79.12
79455;BME280;68900;52.134;5.420;2023-08-12T11:02:56;101627.84;;;21.26;79.46
79455;BME280;68900;52.134;5.420;2023-08-12T11:05:24;101631.22;;;21.28;79.21
79455;BME280;68900;52.134;5.420;2023-08-12T11:08:13;101638.47;;;21.42;79.94
79455;BME280;68900;52.134;5.420;2023-08-12T11:10:39;101632.59;;;21.45;77.42
79455;BME280;68900;52.134;5.420;2023-08-12T11:13:08;101625.41;;;21.50;78.43
79455;BME280;68900;52.134;5.420;2023-08-12T11:15:44;101624.41;;;21.58;77.47
79455;BME280;68900;52.134;5.420;2023-08-12T11:18:16;101625.03;;;21.60;76.75
79455;BME280;68900;52.134;5.420;2023-08-12T11:20:57;101631.44;;;21.67;77.18
79455;BME280;68900;52.134;5.420;2023-08-12T11:23:24;101624.91;;;21.75;76.17
79455;BME280;68900;52.134;5.420;2023-08-12T11:25:51;101625.75;;;21.75;75.58
79455;BME280;68900;52.134;5.420;2023-08-12T11:28:32;101610.97;;;21.76;74.13
79455;BME280;68900;52.134;5.420;2023-08-12T11:30:59;101609.31;;;21.88;75.12
79455;BME280;68900;52.134;5.420;2023-08-12T11:33:25;101613.63;;;22.04;74.02
79455;BME280;68900;52.134;5.420;2023-08-12T11:36:07;101626.75;;;22.15;73.79
79455;BME280;68900;52.134;5.420;2023-08-12T11:38:34;101628.25;;;22.24;71.19
79455;BME280;68900;52.134;5.420;2023-08-12T11:41:01;101628.03;;;22.26;70.83
79455;BME280;68900;52.134;5.420;2023-08-12T11:43:32;101623.38;;;22.26;68.50
79455;BME280;68900;52.134;5.420;2023-08-12T11:46:15;101632.09;;;22.36;72.10
79455;BME280;68900;52.134;5.420;2023-08-12T11:48:43;101615.16;;;22.46;70.21
79455;BME280;68900;52.134;5.420;2023-08-12T11:51:13;101617.28;;;22.51;69.94
79455;BME280;68900;52.134;5.420;2023-08-12T11:53:55;101620.47;;;22.54;68.15
79455;BME280;68900;52.134;5.420;2023-08-12T11:56:22;101616.44;;;22.63;70.02
79455;BME280;68900;52.134;5.420;2023-08-12T11:58:49;101617.75;;;22.74;70.25
79455;BME280;68900;52.134;5.420;2023-08-12T12:01:31;101621.75;;;22.84;69.40
79455;BME280;68900;52.134;5.420;2023-08-12T12:04:01;101618.56;;;22.94;69.38
79455;BME280;68900;52.134;5.420;2023-08-12T12:07:29;101616.88;;;23.00;67.63
79455;BME280;68900;52.134;5.420;2023-08-12T12:09:57;101618.16;;;22.97;68.07
79455;BME280;68900;52.134;5.420;2023-08-12T12:12:24;101616.88;;;23.00;67.72
79455;BME280;68900;52.134;5.420;2023-08-12T12:15:06;101624.31;;;22.93;66.92
79455;BME280;68900;52.134;5.420;2023-08-12T12:17:38;101622.81;;;22.97;68.26
79455;BME280;68900;52.134;5.420;2023-08-12T12:20:25;101620.84;;;23.17;65.95
79455;BME280;68900;52.134;5.420;2023-08-12T12:22:53;101620.22;;;23.21;63.02
79455;BME280;68900;52.134;5.420;2023-08-12T12:25:22;101618.53;;;23.14;62.54
79455;BME280;68900;52.134;5.420;2023-08-12T12:27:55;101615.78;;;23.20;64.72
79455;BME280;68900;52.134;5.420;2023-08-12T12:30:21;101623.56;;;23.37;65.28
79455;BME280;68900;52.134;5.420;2023-08-12T12:32:48;101618.69;;;23.39;64.23
79455;BME280;68900;52.134;5.420;2023-08-12T12:35:35;101624.19;;;23.52;62.81
79455;BME280;68900;52.134;5.420;2023-08-12T12:38:27;101625.66;;;23.54;62.08
79455;BME280;68900;52.134;5.420;2023-08-12T12:40:53;101625.03;;;23.52;61.62
79455;BME280;68900;52.134;5.420;2023-08-12T12:43:20;101623.53;;;23.63;63.75
79455;BME280;68900;52.134;5.420;2023-08-12T12:45:47;101631.94;;;23.74;64.18
79455;BME280;68900;52.134;5.420;2023-08-12T12:48:29;101620.25;;;23.79;64.13
79455;BME280;68900;52.134;5.420;2023-08-12T12:50:58;101628.50;;;23.86;64.28
79455;BME280;68900;52.134;5.420;2023-08-12T12:53:24;101626.75;;;23.91;63.13
79455;BME280;68900;52.134;5.420;2023-08-12T12:55:51;101626.94;;;23.96;62.93
79455;BME280;68900;52.134;5.420;2023-08-12T12:58:34;101622.75;;;23.94;61.60
79455;BME280;68900;52.134;5.420;2023-08-12T13:01:01;101620.84;;;23.94;61.08
79455;BME280;68900;52.134;5.420;2023-08-12T13:03:29;101626.88;;;24.09;59.67
79455;BME280;68900;52.134;5.420;2023-08-12T13:06:11;101617.72;;;24.22;58.96